createdAt,value
2022-07-31T00:00:49.880Z,15.50
2022-07-31T00:03:19.518Z,15.40
2022-07-31T00:05:47.626Z,15.40
2022-07-31T00:08:15.747Z,15.30
2022-07-31T00:10:43.934Z,15.30
2022-07-31T00:13:12.048Z,15.30
2022-07-31T00:15:40.169Z,15.10
2022-07-31T00:18:08.781Z,15.20
2022-07-31T00:20:38.399Z,15.10
2022-07-31T00:23:06.574Z,15.10
2022-07-31T00:25:34.763Z,15.10
2022-07-31T00:28:03.128Z,15.00
2022-07-31T00:30:31.668Z,15.00
2022-07-31T00:32:59.917Z,14.90
2022-07-31T00:35:28.065Z,14.90
2022-07-31T00:38:24.764Z,14.90
2022-07-31T00:40:50.189Z,14.90
2022-07-31T00:43:19.458Z,14.90
2022-07-31T00:45:56.342Z,14.90
2022-07-31T00:48:27.977Z,14.90
2022-07-31T00:50:56.623Z,14.90
2022-07-31T00:53:26.216Z,14.80
2022-07-31T00:55:54.831Z,14.70
2022-07-31T00:58:25.453Z,14.70
2022-07-31T01:00:53.751Z,14.60
2022-07-31T01:03:21.877Z,14.60
2022-07-31T01:05:50.033Z,14.50
2022-07-31T01:08:18.353Z,14.50
2022-07-31T01:10:55.364Z,14.50
2022-07-31T01:13:32.589Z,14.50
2022-07-31T01:16:02.421Z,14.50
2022-07-31T01:18:35.801Z,14.50
2022-07-31T01:21:07.607Z,14.60
2022-07-31T01:23:57.885Z,14.60
2022-07-31T01:26:48.344Z,14.60
2022-07-31T01:29:23.698Z,14.60
2022-07-31T01:31:58.640Z,14.60
2022-07-31T01:34:36.602Z,14.60
2022-07-31T01:37:15.054Z,14.50
2022-07-31T01:39:51.740Z,14.50
2022-07-31T01:42:21.948Z,14.40
2022-07-31T01:44:55.991Z,14.40
2022-07-31T01:47:27.730Z,14.50
2022-07-31T01:49:58.345Z,14.40
2022-07-31T01:52:30.573Z,14.30
2022-07-31T01:55:00.766Z,14.20
2022-07-31T01:57:32.587Z,14.30
2022-07-31T02:00:33.211Z,14.30
2022-07-31T02:02:58.721Z,14.30
2022-07-31T02:05:39.329Z,14.30
2022-07-31T02:08:08.986Z,14.30
2022-07-31T02:10:40.786Z,14.20
2022-07-31T02:13:09.071Z,14.30
2022-07-31T02:15:39.068Z,14.30
2022-07-31T02:18:08.428Z,14.40
2022-07-31T02:20:38.212Z,14.60
2022-07-31T02:23:06.503Z,14.60
2022-07-31T02:25:37.545Z,14.60
2022-07-31T02:28:11.141Z,14.50
2022-07-31T02:30:44.221Z,14.50
2022-07-31T02:33:14.773Z,14.60
2022-07-31T02:35:45.611Z,14.60
2022-07-31T02:38:22.815Z,14.60
2022-07-31T02:40:56.034Z,14.50
2022-07-31T02:43:26.689Z,14.50
2022-07-31T02:45:59.401Z,14.50
2022-07-31T02:48:28.540Z,14.50
2022-07-31T02:51:01.043Z,14.40
2022-07-31T02:53:30.365Z,14.40
2022-07-31T02:56:04.381Z,14.40
2022-07-31T02:58:34.818Z,14.40
2022-07-31T03:01:07.176Z,14.30
2022-07-31T03:03:37.141Z,14.30
2022-07-31T03:06:05.575Z,14.30
2022-07-31T03:08:34.507Z,14.20
2022-07-31T03:11:05.705Z,14.20
2022-07-31T03:13:36.637Z,14.20
2022-07-31T03:16:11.336Z,14.30
2022-07-31T03:18:41.670Z,14.20
2022-07-31T03:21:11.827Z,14.30
2022-07-31T03:23:40.844Z,14.30
2022-07-31T03:26:15.172Z,14.30
2022-07-31T03:28:43.649Z,14.30
2022-07-31T03:31:13.544Z,14.20
2022-07-31T03:33:42.556Z,14.20
2022-07-31T03:36:10.874Z,14.20
2022-07-31T03:38:42.605Z,14.20
2022-07-31T03:41:33.146Z,14.20
2022-07-31T03:44:01.470Z,14.20
2022-07-31T03:46:31.146Z,14.20
2022-07-31T03:48:59.805Z,14.30
2022-07-31T03:51:29.925Z,14.40
2022-07-31T03:53:58.247Z,14.30
2022-07-31T03:56:49.607Z,14.60
2022-07-31T03:59:19.799Z,14.50
2022-07-31T04:02:07.440Z,14.50
2022-07-31T04:04:45.243Z,14.60
2022-07-31T04:07:13.472Z,14.60
2022-07-31T04:09:42.668Z,14.60
2022-07-31T04:12:12.589Z,14.60
2022-07-31T04:14:41.531Z,14.70
2022-07-31T04:17:11.166Z,14.80
2022-07-31T04:19:39.432Z,14.90
2022-07-31T04:22:08.782Z,14.90
2022-07-31T04:24:37.900Z,15.00
2022-07-31T04:27:18.473Z,14.90
2022-07-31T04:29:49.160Z,15.10
2022-07-31T04:32:19.403Z,15.00
2022-07-31T04:35:02.875Z,15.00
2022-07-31T04:37:31.548Z,15.00
2022-07-31T04:40:00.354Z,15.00
2022-07-31T04:42:28.739Z,15.00
2022-07-31T04:45:01.602Z,14.90
2022-07-31T04:47:31.107Z,15.00
2022-07-31T04:49:59.882Z,15.00
2022-07-31T04:52:28.175Z,15.10
2022-07-31T04:55:01.413Z,15.30
2022-07-31T04:57:29.639Z,15.30
2022-07-31T05:00:00.508Z,15.40
2022-07-31T05:02:33.907Z,15.30
2022-07-31T05:05:02.311Z,15.40
2022-07-31T05:07:39.837Z,15.40
2022-07-31T05:10:31.792Z,15.50
2022-07-31T05:13:00.086Z,15.50
2022-07-31T05:15:28.346Z,15.50
2022-07-31T05:17:59.303Z,15.60
2022-07-31T05:20:48.287Z,15.70
2022-07-31T05:23:36.699Z,15.70
2022-07-31T05:26:12.317Z,15.80
2022-07-31T05:28:42.921Z,15.80
2022-07-31T05:31:11.670Z,15.90
2022-07-31T05:33:41.237Z,16.00
2022-07-31T05:36:09.827Z,16.10
2022-07-31T05:38:38.102Z,16.20
2022-07-31T05:41:33.326Z,16.40
2022-07-31T05:44:24.631Z,16.60
2022-07-31T05:49:22.346Z,16.80
2022-07-31T05:51:55.026Z,16.80
2022-07-31T05:54:23.871Z,17.00
2022-07-31T05:57:34.124Z,17.10
2022-07-31T06:00:05.294Z,17.10
2022-07-31T06:02:40.116Z,17.20
2022-07-31T06:05:30.654Z,17.30
2022-07-31T06:07:59.057Z,17.50
2022-07-31T06:10:28.929Z,17.50
2022-07-31T06:12:57.131Z,17.80
2022-07-31T06:15:25.643Z,17.90
2022-07-31T06:17:53.904Z,17.90
2022-07-31T06:20:30.517Z,18.10
2022-07-31T06:22:59.654Z,18.20
2022-07-31T06:25:36.163Z,18.30
2022-07-31T06:28:10.648Z,18.50
2022-07-31T06:30:40.273Z,18.50
2022-07-31T06:33:08.755Z,18.60
2022-07-31T06:35:46.441Z,18.60
2022-07-31T06:38:50.059Z,18.80
2022-07-31T06:41:50.986Z,19.00
2022-07-31T06:44:32.139Z,18.90
2022-07-31T06:47:16.153Z,19.00
2022-07-31T06:49:59.331Z,19.30
2022-07-31T06:52:30.582Z,19.40
2022-07-31T06:54:58.872Z,19.30
2022-07-31T06:57:27.321Z,19.30
2022-07-31T06:59:55.969Z,19.50
2022-07-31T07:02:24.803Z,19.30
2022-07-31T07:05:04.870Z,19.50
2022-07-31T07:07:37.828Z,19.60
2022-07-31T07:10:08.914Z,19.70
2022-07-31T07:13:00.462Z,19.90
2022-07-31T07:15:32.739Z,19.90
2022-07-31T07:18:00.969Z,19.90
2022-07-31T07:20:46.008Z,20.00
2022-07-31T07:23:15.617Z,20.10
2022-07-31T07:25:56.196Z,20.00
2022-07-31T07:28:30.361Z,20.20
2022-07-31T07:31:01.654Z,20.00
2022-07-31T07:33:39.849Z,20.00
2022-07-31T07:36:22.384Z,20.20
2022-07-31T07:38:58.798Z,20.00
2022-07-31T07:41:27.233Z,20.30
2022-07-31T07:43:55.731Z,20.10
2022-07-31T07:46:27.927Z,20.40
2022-07-31T07:48:59.084Z,20.50
2022-07-31T07:51:58.910Z,20.40
2022-07-31T07:54:43.213Z,20.30
2022-07-31T07:57:29.850Z,20.50
2022-07-31T08:00:08.935Z,20.90
2022-07-31T08:03:48.260Z,20.60
2022-07-31T08:05:41.745Z,20.80
2022-07-31T08:08:10.915Z,20.80
2022-07-31T08:11:01.181Z,20.90
2022-07-31T08:13:55.769Z,21.10
2022-07-31T08:16:42.528Z,20.90
2022-07-31T08:19:10.704Z,21.00
2022-07-31T08:21:39.296Z,21.50
2022-07-31T08:24:07.950Z,21.20
2022-07-31T08:26:51.422Z,21.40
2022-07-31T08:29:27.553Z,21.20
2022-07-31T08:32:11.179Z,21.50
2022-07-31T08:35:02.283Z,21.50
2022-07-31T08:38:02.303Z,22.00
2022-07-31T08:40:21.007Z,22.10
2022-07-31T08:42:50.701Z,21.70
2022-07-31T08:45:19.156Z,21.80
2022-07-31T08:47:58.333Z,22.10
2022-07-31T08:50:31.040Z,22.40
2022-07-31T08:53:03.529Z,22.00
2022-07-31T08:55:56.699Z,22.30
2022-07-31T08:58:29.973Z,22.30
2022-07-31T09:00:58.707Z,22.50
2022-07-31T09:03:27.034Z,22.50
2022-07-31T09:06:00.518Z,22.60
2022-07-31T09:08:28.743Z,22.50
2022-07-31T09:11:06.247Z,22.40
2022-07-31T09:13:40.924Z,22.50
2022-07-31T09:16:30.738Z,22.70
2022-07-31T09:19:01.434Z,22.80
2022-07-31T09:21:40.954Z,23.30
2022-07-31T09:24:10.244Z,22.90
2022-07-31T09:26:40.933Z,22.70
2022-07-31T09:29:12.583Z,23.30
2022-07-31T09:31:41.926Z,23.20
2022-07-31T09:34:30.780Z,23.30
2022-07-31T09:37:11.343Z,23.80
2022-07-31T09:39:58.929Z,23.60
2022-07-31T09:42:52.923Z,23.70
2022-07-31T09:45:27.680Z,24.10
2022-07-31T09:48:08.263Z,24.00
2022-07-31T09:50:38.610Z,24.20
2022-07-31T09:53:07.519Z,24.00
2022-07-31T09:55:36.771Z,24.60
2022-07-31T09:58:05.155Z,24.20
2022-07-31T10:00:40.727Z,23.90
2022-07-31T10:03:09.218Z,24.70
2022-07-31T10:05:38.684Z,25.40
2022-07-31T10:08:07.538Z,25.10
2022-07-31T10:10:51.083Z,24.90
2022-07-31T10:13:29.225Z,24.70
2022-07-31T10:16:01.271Z,24.30
2022-07-31T10:19:01.192Z,25.00
2022-07-31T10:21:43.351Z,24.90
2022-07-31T10:24:14.759Z,25.20
2022-07-31T10:27:00.343Z,25.60
2022-07-31T10:29:32.590Z,25.50
2022-07-31T10:32:07.392Z,25.70
2022-07-31T10:34:39.754Z,25.80
2022-07-31T10:37:35.989Z,25.60
2022-07-31T10:40:28.673Z,25.70
2022-07-31T10:43:18.524Z,25.70
2022-07-31T10:45:56.269Z,26.20
2022-07-31T10:48:53.823Z,26.20
2022-07-31T10:51:54.229Z,25.80
2022-07-31T10:54:42.950Z,26.00
2022-07-31T10:57:55.971Z,25.90
2022-07-31T11:00:45.524Z,26.10
2022-07-31T11:03:24.832Z,26.20
2022-07-31T11:06:16.039Z,25.80
2022-07-31T11:08:57.888Z,25.30
2022-07-31T11:11:51.968Z,26.10
2022-07-31T11:14:55.187Z,25.80
2022-07-31T11:18:16.598Z,26.20
2022-07-31T11:20:33.688Z,26.00
2022-07-31T11:23:05.672Z,27.10
2022-07-31T11:25:36.319Z,26.60
2022-07-31T11:28:18.850Z,26.00
2022-07-31T11:30:51.763Z,25.60
2022-07-31T11:33:42.602Z,25.80
2022-07-31T11:36:13.055Z,26.80
2022-07-31T11:38:44.727Z,27.00
2022-07-31T11:41:15.571Z,27.10
2022-07-31T11:43:47.393Z,27.10
2022-07-31T11:46:20.041Z,27.40
2022-07-31T11:48:48.782Z,27.60
2022-07-31T11:51:20.580Z,27.00
2022-07-31T11:53:57.467Z,26.50
2022-07-31T11:56:27.787Z,26.40
2022-07-31T11:58:57.566Z,26.40
2022-07-31T12:01:28.408Z,25.70
2022-07-31T12:03:57.525Z,25.90
2022-07-31T12:06:36.592Z,25.90
2022-07-31T12:09:06.632Z,26.10
2022-07-31T12:11:34.860Z,26.00
2022-07-31T12:14:03.021Z,26.00
2022-07-31T12:16:41.240Z,25.70
2022-07-31T12:19:09.352Z,25.50
2022-07-31T12:21:40.550Z,26.00
2022-07-31T12:24:13.848Z,25.90
2022-07-31T12:26:50.061Z,26.10
2022-07-31T12:29:18.237Z,26.00
2022-07-31T12:31:48.549Z,26.00
2022-07-31T12:34:27.958Z,25.90
2022-07-31T12:37:04.104Z,26.30
2022-07-31T12:39:54.350Z,26.20
2022-07-31T12:42:30.336Z,26.30
2022-07-31T12:45:17.633Z,26.70
2022-07-31T12:47:51.696Z,26.70
2022-07-31T12:50:20.925Z,26.60
2022-07-31T12:52:49.200Z,27.90
2022-07-31T12:55:19.553Z,27.70
2022-07-31T12:57:51.195Z,27.20
2022-07-31T13:00:22.673Z,27.10
2022-07-31T13:02:51.866Z,27.30
2022-07-31T13:05:20.507Z,27.40
2022-07-31T13:07:48.678Z,27.30
2022-07-31T13:10:21.094Z,26.90
2022-07-31T13:12:52.345Z,27.10
2022-07-31T13:15:23.255Z,26.90
2022-07-31T13:17:51.622Z,27.50
2022-07-31T13:20:19.895Z,27.10
2022-07-31T13:22:48.113Z,27.00
2022-07-31T13:25:16.366Z,26.80
2022-07-31T13:27:45.835Z,27.00
2022-07-31T13:30:15.039Z,27.30
2022-07-31T13:32:43.216Z,27.10
2022-07-31T13:35:26.793Z,28.00
2022-07-31T13:37:56.480Z,27.30
2022-07-31T13:40:44.874Z,27.10
2022-07-31T13:43:14.556Z,28.20
2022-07-31T13:45:42.708Z,27.80
2022-07-31T13:48:11.095Z,27.70
2022-07-31T13:50:39.830Z,27.70
2022-07-31T13:53:08.549Z,26.80
2022-07-31T13:55:36.831Z,27.10
2022-07-31T13:58:05.098Z,27.00
2022-07-31T14:00:34.609Z,27.00
2022-07-31T14:03:02.781Z,27.00
2022-07-31T14:05:32.632Z,26.80
2022-07-31T14:08:33.021Z,27.00
2022-07-31T14:10:57.216Z,26.60
2022-07-31T14:13:25.845Z,26.90
2022-07-31T14:15:55.353Z,27.00
2022-07-31T14:18:24.486Z,27.90
2022-07-31T14:20:52.717Z,28.50
2022-07-31T14:23:26.395Z,28.90
2022-07-31T14:26:03.926Z,27.60
2022-07-31T14:28:32.140Z,28.50
2022-07-31T14:31:01.631Z,28.90
2022-07-31T14:33:30.178Z,29.30
2022-07-31T14:35:58.391Z,29.10
2022-07-31T14:38:27.487Z,29.90
2022-07-31T14:40:56.573Z,29.70
2022-07-31T14:43:24.924Z,28.70
2022-07-31T14:45:53.070Z,28.90
2022-07-31T14:48:23.006Z,28.40
2022-07-31T14:50:51.164Z,28.50
2022-07-31T14:53:19.378Z,28.10
2022-07-31T14:55:47.503Z,27.80
2022-07-31T14:58:15.679Z,27.80
2022-07-31T15:00:44.065Z,27.00
2022-07-31T15:03:12.253Z,27.20
2022-07-31T15:06:40.036Z,27.70
2022-07-31T15:08:30.855Z,29.20
2022-07-31T15:10:58.911Z,28.40
2022-07-31T15:13:27.009Z,27.70
2022-07-31T15:15:55.228Z,27.50
2022-07-31T15:18:25.164Z,28.60
2022-07-31T15:20:55.371Z,28.40
2022-07-31T15:23:23.657Z,29.10
2022-07-31T15:25:51.917Z,27.30
2022-07-31T15:28:20.160Z,27.10
2022-07-31T15:30:48.258Z,27.10
2022-07-31T15:33:16.490Z,27.20
2022-07-31T15:35:44.599Z,27.10
2022-07-31T15:38:14.152Z,27.20
2022-07-31T15:40:42.435Z,26.80
2022-07-31T15:43:10.546Z,26.70
2022-07-31T15:45:38.769Z,26.50
2022-07-31T15:48:10.126Z,27.00
2022-07-31T15:50:38.703Z,28.10
2022-07-31T15:53:06.830Z,28.80
2022-07-31T15:55:36.373Z,29.00
2022-07-31T15:58:04.497Z,29.30
2022-07-31T16:00:32.754Z,29.30
2022-07-31T16:03:01.771Z,28.20
2022-07-31T16:05:36.751Z,28.50
2022-07-31T16:08:32.668Z,28.90
2022-07-31T16:10:58.721Z,28.10
2022-07-31T16:13:27.094Z,28.00
2022-07-31T16:15:55.494Z,27.90
2022-07-31T16:18:23.662Z,28.00
2022-07-31T16:20:51.810Z,27.80
2022-07-31T16:23:20.214Z,28.20
2022-07-31T16:25:48.418Z,27.60
2022-07-31T16:28:18.097Z,26.90
2022-07-31T16:30:46.736Z,26.80
2022-07-31T16:33:15.068Z,26.50
2022-07-31T16:35:43.282Z,26.90
2022-07-31T16:38:11.374Z,26.80
2022-07-31T16:40:39.593Z,26.50
2022-07-31T16:43:50.609Z,26.60
2022-07-31T16:45:58.317Z,26.60
2022-07-31T16:48:26.509Z,26.60
2022-07-31T16:50:55.283Z,26.80
2022-07-31T16:54:11.366Z,27.20
2022-07-31T16:56:13.060Z,27.10
2022-07-31T16:58:41.458Z,27.70
2022-07-31T17:01:53.969Z,28.10
2022-07-31T17:04:03.481Z,27.90
2022-07-31T17:06:36.388Z,27.60
2022-07-31T17:09:15.749Z,27.10
2022-07-31T17:11:47.973Z,27.20
2022-07-31T17:14:16.553Z,27.80
2022-07-31T17:16:48.306Z,27.70
2022-07-31T17:19:43.028Z,27.90
2022-07-31T17:22:07.543Z,27.80
2022-07-31T17:24:37.302Z,27.00
2022-07-31T17:27:06.869Z,27.50
2022-07-31T17:29:35.534Z,27.30
2022-07-31T17:32:06.443Z,26.70
2022-07-31T17:34:35.469Z,26.80
2022-07-31T17:37:04.593Z,26.70
2022-07-31T17:39:33.227Z,26.70
2022-07-31T17:42:01.372Z,26.10
2022-07-31T17:44:30.931Z,26.00
2022-07-31T17:46:59.052Z,25.90
2022-07-31T17:49:29.233Z,26.00
2022-07-31T17:51:59.599Z,26.00
2022-07-31T17:54:28.798Z,25.80
2022-07-31T17:56:57.241Z,25.60
2022-07-31T17:59:26.131Z,25.50
2022-07-31T18:01:59.747Z,25.40
2022-07-31T18:04:30.438Z,25.40
2022-07-31T18:06:59.159Z,25.70
2022-07-31T18:09:28.574Z,25.90
2022-07-31T18:11:57.914Z,25.90
2022-07-31T18:14:26.621Z,25.80
2022-07-31T18:16:55.082Z,25.50
2022-07-31T18:19:23.735Z,25.40
2022-07-31T18:21:54.083Z,25.40
2022-07-31T18:24:23.377Z,25.30
2022-07-31T18:26:53.724Z,25.20
2022-07-31T18:29:22.499Z,25.10
2022-07-31T18:31:50.777Z,25.00
2022-07-31T18:34:18.925Z,24.90
2022-07-31T18:36:52.934Z,24.90
2022-07-31T18:39:24.757Z,24.70
2022-07-31T18:41:53.125Z,24.70
2022-07-31T18:44:22.032Z,24.60
2022-07-31T18:46:50.297Z,24.50
2022-07-31T18:51:01.038Z,24.40
2022-07-31T18:52:07.742Z,24.40
2022-07-31T18:54:37.854Z,24.30
2022-07-31T18:57:06.636Z,24.30
2022-07-31T18:59:34.813Z,24.20
2022-07-31T19:02:03.612Z,24.10
2022-07-31T19:04:32.208Z,24.30
2022-07-31T19:07:00.388Z,24.10
2022-07-31T19:09:28.714Z,24.00
2022-07-31T19:11:58.985Z,23.90
2022-07-31T19:14:27.449Z,23.70
2022-07-31T19:16:57.913Z,23.60
2022-07-31T19:19:28.405Z,23.50
2022-07-31T19:22:14.386Z,23.50
2022-07-31T19:24:42.808Z,23.40
2022-07-31T19:27:12.378Z,23.30
2022-07-31T19:29:40.586Z,23.30
2022-07-31T19:32:09.086Z,23.20
2022-07-31T19:34:37.351Z,23.10
2022-07-31T19:37:05.692Z,23.10
2022-07-31T19:39:37.994Z,23.10
2022-07-31T19:42:10.778Z,23.10
2022-07-31T19:44:41.133Z,23.10
2022-07-31T19:47:09.344Z,23.10
2022-07-31T19:49:38.513Z,23.00
2022-07-31T19:52:09.395Z,23.00
2022-07-31T19:54:37.637Z,23.00
2022-07-31T19:57:06.276Z,22.90
2022-07-31T19:59:34.448Z,22.80
2022-07-31T20:02:05.046Z,22.70
2022-07-31T20:04:33.443Z,22.70
2022-07-31T20:07:01.625Z,22.60
2022-07-31T20:09:30.898Z,22.60
2022-07-31T20:11:59.077Z,22.50
2022-07-31T20:14:27.257Z,22.50
2022-07-31T20:16:55.533Z,22.40
2022-07-31T20:19:25.065Z,22.30
2022-07-31T20:21:53.326Z,22.20
2022-07-31T20:24:21.488Z,22.20
2022-07-31T20:26:49.621Z,22.20
2022-07-31T20:29:17.879Z,22.20
2022-07-31T20:31:46.144Z,22.10
2022-07-31T20:34:15.113Z,22.00
2022-07-31T20:36:44.609Z,21.90
2022-07-31T20:39:12.873Z,22.00
2022-07-31T20:41:40.968Z,22.00
2022-07-31T20:44:09.075Z,22.00
2022-07-31T20:46:37.315Z,21.90
2022-07-31T20:49:05.625Z,22.00
2022-07-31T20:51:34.857Z,21.90
2022-07-31T20:54:04.567Z,21.90
2022-07-31T20:56:33.147Z,21.90
2022-07-31T20:59:01.343Z,21.90
2022-07-31T21:01:29.606Z,21.90
2022-07-31T21:03:57.933Z,21.80
2022-07-31T21:06:26.197Z,21.80
2022-07-31T21:08:54.474Z,21.80
2022-07-31T21:11:31.464Z,21.80
2022-07-31T21:14:00.112Z,21.70
2022-07-31T21:16:28.269Z,21.80
2022-07-31T21:18:56.476Z,21.70
2022-07-31T21:21:24.693Z,21.80
2022-07-31T21:23:52.860Z,21.70
2022-07-31T21:26:24.234Z,21.70
2022-07-31T21:28:52.855Z,21.70
2022-07-31T21:31:21.540Z,21.60
2022-07-31T21:33:49.995Z,21.60
2022-07-31T21:36:20.365Z,21.60
2022-07-31T21:38:49.103Z,21.60
2022-07-31T21:41:17.822Z,21.50
2022-07-31T21:43:59.399Z,21.40
2022-07-31T21:46:29.816Z,21.40
2022-07-31T21:48:58.473Z,21.30
2022-07-31T21:51:27.194Z,21.20
2022-07-31T21:53:55.296Z,21.20
2022-07-31T21:56:23.488Z,21.10
2022-07-31T21:58:52.945Z,21.00
2022-07-31T22:01:21.289Z,21.00
2022-07-31T22:03:49.497Z,20.90
2022-07-31T22:09:28.375Z,20.80
2022-07-31T22:12:01.389Z,20.70
2022-07-31T22:14:31.529Z,20.70
2022-07-31T22:16:59.728Z,20.70
2022-07-31T22:19:28.465Z,20.70
2022-07-31T22:21:56.965Z,20.60
2022-07-31T22:24:25.672Z,20.60
2022-07-31T22:27:15.026Z,20.60
2022-07-31T22:29:46.995Z,20.60
2022-07-31T22:32:15.434Z,20.50
2022-07-31T22:34:43.612Z,20.50
2022-07-31T22:37:12.212Z,20.50
2022-07-31T22:39:40.780Z,20.50
2022-07-31T22:42:09.401Z,20.50
2022-07-31T22:44:38.604Z,20.40
2022-07-31T22:47:08.854Z,20.40
2022-07-31T22:49:37.383Z,20.50
2022-07-31T22:52:07.203Z,20.40
2022-07-31T22:54:35.556Z,20.40
2022-07-31T22:57:03.602Z,20.30
2022-07-31T22:59:31.847Z,20.20
2022-07-31T23:02:04.383Z,20.20
2022-07-31T23:04:34.642Z,20.10
2022-07-31T23:07:02.953Z,20.10
2022-07-31T23:09:31.602Z,20.00
2022-07-31T23:12:00.424Z,20.00
2022-07-31T23:14:29.951Z,20.00
2022-07-31T23:16:58.391Z,20.00
2022-07-31T23:19:26.828Z,19.90
2022-07-31T23:21:56.281Z,19.90
2022-07-31T23:24:24.412Z,19.80
2022-07-31T23:26:52.568Z,19.80
2022-07-31T23:29:20.714Z,19.70
2022-07-31T23:31:48.803Z,19.70
2022-07-31T23:34:17.117Z,19.70
2022-07-31T23:36:45.793Z,19.70
2022-07-31T23:39:15.313Z,19.80
2022-07-31T23:42:01.155Z,19.80
2022-07-31T23:44:29.374Z,19.70
2022-07-31T23:46:57.495Z,19.80
2022-07-31T23:49:25.888Z,19.70
2022-07-31T23:51:54.091Z,19.70
2022-07-31T23:54:23.571Z,19.80
2022-07-31T23:56:51.713Z,19.80
2022-07-31T23:59:19.817Z,19.80
